createdAt,value
2022-08-07T00:00:40.158Z,48.20
2022-08-07T00:10:47.868Z,47.50
2022-08-07T00:20:53.628Z,47.25
2022-08-07T00:30:57.334Z,47.42
2022-08-07T00:41:02.707Z,46.24
2022-08-07T00:51:05.980Z,46.43
2022-08-07T01:01:10.975Z,46.54
2022-08-07T01:12:23.866Z,45.68
2022-08-07T01:21:39.577Z,45.53
2022-08-07T01:31:48.275Z,45.51
2022-08-07T01:42:01.434Z,44.66
2022-08-07T01:52:16.781Z,45.24
2022-08-07T02:02:32.529Z,45.44
2022-08-07T02:12:50.254Z,45.47
2022-08-07T02:22:59.731Z,44.45
2022-08-07T02:33:09.535Z,45.24
2022-08-07T02:43:16.060Z,45.51
2022-08-07T02:53:27.393Z,45.18
2022-08-07T03:03:49.447Z,45.15
2022-08-07T03:13:57.517Z,45.92
2022-08-07T03:24:18.917Z,46.06
2022-08-07T03:34:27.371Z,46.07
2022-08-07T03:44:34.422Z,46.17
2022-08-07T03:54:54.314Z,46.22
2022-08-07T04:04:59.376Z,47.62
2022-08-07T04:15:02.644Z,46.85
2022-08-07T04:25:12.552Z,47.49
2022-08-07T04:35:16.168Z,46.93
2022-08-07T04:45:57.763Z,46.42
2022-08-07T04:58:11.156Z,45.95
2022-08-07T05:06:19.677Z,46.61
2022-08-07T05:16:24.321Z,46.14
2022-08-07T05:26:30.330Z,45.29
2022-08-07T05:36:35.696Z,43.62
2022-08-07T05:46:42.867Z,43.75
2022-08-07T05:56:48.511Z,42.90
2022-08-07T06:06:56.426Z,43.73
2022-08-07T06:17:08.462Z,43.59
2022-08-07T06:27:44.304Z,41.62
2022-08-07T06:37:45.164Z,40.02
2022-08-07T06:47:58.700Z,39.77
2022-08-07T06:58:05.512Z,40.11
2022-08-07T07:08:18.432Z,39.64
2022-08-07T07:18:47.695Z,39.35
2022-08-07T07:29:56.934Z,37.73
2022-08-07T07:39:21.378Z,37.64
2022-08-07T07:50:35.973Z,37.62
2022-08-07T07:59:53.959Z,36.07
2022-08-07T08:10:05.334Z,33.21
2022-08-07T08:20:17.366Z,34.84
2022-08-07T08:30:29.180Z,33.27
2022-08-07T08:40:34.714Z,33.32
2022-08-07T08:50:46.821Z,33.19
2022-08-07T09:01:01.034Z,34.07
2022-08-07T09:11:43.028Z,32.27
2022-08-07T09:22:09.929Z,31.74
2022-08-07T09:32:26.492Z,30.17
2022-08-07T09:42:39.878Z,30.34
2022-08-07T09:52:51.826Z,29.94
2022-08-07T10:04:05.538Z,29.74
2022-08-07T10:14:01.045Z,29.68
2022-08-07T10:24:39.635Z,29.67
2022-08-07T10:34:56.189Z,27.59
2022-08-07T10:45:04.124Z,30.12
2022-08-07T10:55:32.500Z,29.15
2022-08-07T11:05:49.293Z,29.57
2022-08-07T11:15:57.023Z,29.36
2022-08-07T11:26:07.694Z,27.47
2022-08-07T11:36:25.382Z,30.24
2022-08-07T11:46:45.414Z,30.72
2022-08-07T11:57:14.199Z,28.55
2022-08-07T12:07:27.927Z,28.28
2022-08-07T12:17:58.652Z,29.72
2022-08-07T12:28:10.998Z,28.56
2022-08-07T12:38:30.568Z,28.56
2022-08-07T12:48:53.104Z,28.96
2022-08-07T12:59:00.863Z,28.57
2022-08-07T13:10:19.440Z,28.79
2022-08-07T13:19:50.830Z,28.44
2022-08-07T13:30:03.561Z,27.70
2022-08-07T13:40:35.321Z,27.35
2022-08-07T13:50:55.533Z,27.75
2022-08-07T14:01:12.594Z,27.35
2022-08-07T14:11:17.752Z,26.16
2022-08-07T14:22:03.958Z,27.25
2022-08-07T14:31:56.244Z,26.49
2022-08-07T14:42:22.470Z,29.58
2022-08-07T14:52:28.820Z,27.82
2022-08-07T15:02:35.186Z,28.10
2022-08-07T15:12:42.275Z,28.19
2022-08-07T15:22:51.579Z,28.53
2022-08-07T15:33:03.738Z,28.59
2022-08-07T15:43:53.619Z,27.58
2022-08-07T15:53:52.006Z,28.35
2022-08-07T16:04:01.313Z,28.33
2022-08-07T16:14:17.149Z,28.65
2022-08-07T16:24:34.983Z,28.38
2022-08-07T16:34:48.198Z,28.13
2022-08-07T16:45:14.750Z,29.60
2022-08-07T16:55:47.418Z,28.98
2022-08-07T17:06:28.891Z,28.94
2022-08-07T17:16:28.599Z,29.13
2022-08-07T17:26:51.039Z,29.77
2022-08-07T17:37:00.029Z,30.40
2022-08-07T17:47:37.929Z,31.09
2022-08-07T17:57:58.510Z,31.50
2022-08-07T18:08:17.543Z,32.67
2022-08-07T18:21:00.858Z,34.24
2022-08-07T18:29:05.461Z,34.58
2022-08-07T18:40:08.132Z,36.54
2022-08-07T18:50:49.852Z,37.57
2022-08-07T19:01:03.795Z,39.86
2022-08-07T19:11:35.100Z,39.83
2022-08-07T19:21:56.822Z,37.08
2022-08-07T19:32:28.786Z,32.76
2022-08-07T19:42:30.423Z,31.68
2022-08-07T19:52:35.761Z,32.64
2022-08-07T20:02:52.242Z,34.33
2022-08-07T20:13:00.008Z,35.09
2022-08-07T20:23:41.892Z,35.12
2022-08-07T20:33:38.686Z,36.26
2022-08-07T20:43:47.704Z,36.70
2022-08-07T20:54:03.730Z,38.29
2022-08-07T21:04:21.893Z,40.21
2022-08-07T21:14:32.749Z,40.89
2022-08-07T21:24:48.028Z,41.49
2022-08-07T21:34:59.126Z,42.77
2022-08-07T21:45:08.502Z,43.24
2022-08-07T21:55:38.491Z,44.14
2022-08-07T22:05:49.763Z,45.03
2022-08-07T22:16:39.162Z,45.38
2022-08-07T22:26:29.758Z,45.20
2022-08-07T22:36:38.505Z,46.95
2022-08-07T22:47:06.085Z,46.70
2022-08-07T22:57:34.077Z,48.11
2022-08-07T23:07:49.589Z,48.39
2022-08-07T23:18:10.422Z,49.21
2022-08-07T23:28:28.225Z,50.02
2022-08-07T23:38:54.707Z,50.84
2022-08-07T23:49:16.946Z,51.86
